Austin, Texas
Traffic Map
Current Weather Conditions
Austin, Texas
Clear
Clear
52°
Feels Like: 52°
Wind Chill: 52° Ceiling: Unl
Heat Index: 52° Visibility: 10mi
Dew Point: 39° Wind: 3mph
Humidity: 61% Direction: 20° (NNE)
Pressure: 30.3in Gusts: 0mph
Raw Report DataKATT 310351Z AUTO 02003KT 10SM CLR 11/04 A3030 RMK AO2 SLP262 T01110039
Traffic Incident Summary
Active as of:
Severity:
Category:
InformationThere was an issue retrieving the traffic information for this location. Please try a different location or try again shortly.
Advertisements
Track Severe Weather on mobile